createdAt,value
2022-08-29T00:00:30.588Z,20.82
2022-08-29T00:03:00.095Z,20.78
2022-08-29T00:05:29.754Z,20.75
2022-08-29T00:07:57.263Z,20.73
2022-08-29T00:10:23.900Z,20.72
2022-08-29T00:12:50.476Z,20.69
2022-08-29T00:15:18.167Z,20.65
2022-08-29T00:17:45.189Z,20.63
2022-08-29T00:20:15.537Z,20.60
2022-08-29T00:22:42.484Z,20.58
2022-08-29T00:25:11.089Z,20.56
2022-08-29T00:27:37.769Z,20.54
2022-08-29T00:30:06.899Z,20.53
2022-08-29T00:32:36.481Z,20.49
2022-08-29T00:35:06.880Z,20.42
2022-08-29T00:37:33.441Z,20.38
2022-08-29T00:40:00.061Z,20.34
2022-08-29T00:42:27.970Z,20.30
2022-08-29T00:44:54.811Z,20.27
2022-08-29T00:47:25.911Z,20.24
2022-08-29T00:49:55.712Z,20.23
2022-08-29T00:52:30.712Z,20.20
2022-08-29T00:54:57.352Z,20.21
2022-08-29T00:57:27.588Z,20.20
2022-08-29T00:59:54.278Z,20.21
2022-08-29T01:02:20.829Z,20.19
2022-08-29T01:04:47.840Z,20.18
2022-08-29T01:07:14.723Z,20.16
2022-08-29T01:09:43.281Z,20.14
2022-08-29T01:12:16.222Z,20.15
2022-08-29T01:14:54.111Z,20.16
2022-08-29T01:17:33.702Z,20.15
2022-08-29T01:20:10.396Z,20.14
2022-08-29T01:23:02.998Z,20.11
2022-08-29T01:25:34.600Z,20.11
2022-08-29T01:28:07.920Z,20.10
2022-08-29T01:30:34.661Z,20.09
2022-08-29T01:33:01.788Z,20.07
2022-08-29T01:35:28.857Z,20.07
2022-08-29T01:37:55.750Z,20.05
2022-08-29T01:42:57.571Z,20.00
2022-08-29T01:45:24.187Z,19.96
2022-08-29T01:47:50.703Z,19.90
2022-08-29T01:50:17.365Z,19.86
2022-08-29T01:52:43.966Z,19.82
2022-08-29T01:55:11.131Z,19.82
2022-08-29T01:57:39.558Z,19.80
2022-08-29T02:00:08.502Z,19.79
2022-08-29T02:02:35.264Z,19.76
2022-08-29T02:05:03.573Z,19.73
2022-08-29T02:07:30.054Z,19.73
2022-08-29T02:09:56.637Z,19.70
2022-08-29T02:12:23.158Z,19.69
2022-08-29T02:14:50.825Z,19.68
2022-08-29T02:17:17.651Z,19.66
2022-08-29T02:19:44.171Z,19.64
2022-08-29T02:22:10.997Z,19.61
2022-08-29T02:24:37.980Z,19.55
2022-08-29T02:27:04.524Z,19.55
2022-08-29T02:29:37.620Z,19.49
2022-08-29T02:32:07.015Z,19.45
2022-08-29T02:34:33.841Z,19.43
2022-08-29T02:37:01.384Z,19.41
2022-08-29T02:39:27.853Z,19.39
2022-08-29T02:41:54.407Z,19.36
2022-08-29T02:44:20.985Z,19.34
2022-08-29T02:46:48.717Z,19.30
2022-08-29T02:49:15.833Z,19.27
2022-08-29T02:51:42.585Z,19.22
2022-08-29T02:54:09.520Z,19.16
2022-08-29T02:56:36.731Z,19.14
2022-08-29T02:59:03.498Z,19.11
2022-08-29T03:01:31.394Z,19.09
2022-08-29T03:03:58.222Z,19.06
2022-08-29T03:06:24.769Z,19.00
2022-08-29T03:08:51.597Z,18.97
2022-08-29T03:11:21.212Z,18.94
2022-08-29T03:13:47.718Z,18.94
2022-08-29T03:16:14.558Z,18.93
2022-08-29T03:18:41.461Z,18.92
2022-08-29T03:21:20.347Z,18.87
2022-08-29T03:23:48.600Z,18.88
2022-08-29T03:26:15.628Z,18.89
2022-08-29T03:28:42.524Z,18.88
2022-08-29T03:31:09.601Z,18.89
2022-08-29T03:33:36.503Z,18.90
2022-08-29T03:36:03.474Z,18.91
2022-08-29T03:38:35.727Z,18.91
2022-08-29T03:41:02.238Z,18.92
2022-08-29T03:43:28.722Z,18.91
2022-08-29T03:45:55.236Z,18.92
2022-08-29T03:48:21.780Z,18.89
2022-08-29T03:50:49.201Z,18.89
2022-08-29T03:53:18.259Z,18.89
2022-08-29T03:55:46.629Z,18.86
2022-08-29T03:58:13.317Z,18.85
2022-08-29T04:00:39.870Z,18.85
2022-08-29T04:03:06.521Z,18.83
2022-08-29T04:05:33.448Z,18.81
2022-08-29T04:08:00.232Z,18.82
2022-08-29T04:10:30.366Z,18.79
2022-08-29T04:12:57.911Z,18.79
2022-08-29T04:15:26.356Z,18.79
2022-08-29T04:17:55.319Z,18.79
2022-08-29T04:20:25.877Z,18.76
2022-08-29T04:22:54.373Z,18.74
2022-08-29T04:25:21.962Z,18.73
2022-08-29T04:27:49.497Z,18.71
2022-08-29T04:30:18.853Z,18.69
2022-08-29T04:32:46.022Z,18.68
2022-08-29T04:35:13.950Z,18.67
2022-08-29T04:37:41.394Z,18.66
2022-08-29T04:40:10.408Z,18.67
2022-08-29T04:42:37.971Z,18.66
2022-08-29T04:45:06.902Z,18.66
2022-08-29T04:47:36.522Z,18.65
2022-08-29T04:50:04.126Z,18.67
2022-08-29T04:52:31.073Z,18.67
2022-08-29T04:54:57.660Z,18.68
2022-08-29T04:57:24.808Z,18.68
2022-08-29T04:59:56.215Z,18.68
2022-08-29T05:02:23.963Z,18.70
2022-08-29T05:04:52.828Z,18.67
2022-08-29T05:07:21.016Z,18.66
2022-08-29T05:09:57.638Z,18.67
2022-08-29T05:12:26.053Z,18.70
2022-08-29T05:14:53.786Z,18.71
2022-08-29T05:17:20.798Z,18.75
2022-08-29T05:19:47.950Z,18.77
2022-08-29T05:22:15.436Z,18.81
2022-08-29T05:24:42.320Z,18.84
2022-08-29T05:27:11.592Z,18.88
2022-08-29T05:29:40.227Z,18.93
2022-08-29T05:32:10.998Z,19.02
2022-08-29T05:34:38.808Z,19.09
2022-08-29T05:37:08.650Z,19.12
2022-08-29T05:39:36.760Z,19.16
2022-08-29T05:42:04.919Z,19.18
2022-08-29T05:44:35.304Z,19.22
2022-08-29T05:47:08.408Z,19.29
2022-08-29T05:49:36.837Z,19.32
2022-08-29T05:52:04.114Z,19.35
2022-08-29T05:54:33.026Z,19.40
2022-08-29T05:56:59.683Z,19.48
2022-08-29T05:59:26.323Z,19.50
2022-08-29T06:01:52.861Z,19.53
2022-08-29T06:04:19.481Z,19.56
2022-08-29T06:06:46.049Z,19.59
2022-08-29T06:09:13.311Z,19.63
2022-08-29T06:11:39.925Z,19.68
2022-08-29T06:14:06.514Z,19.72
2022-08-29T06:16:33.663Z,19.78
2022-08-29T06:19:01.228Z,19.85
2022-08-29T06:21:27.794Z,19.91
2022-08-29T06:23:54.928Z,19.96
2022-08-29T06:26:21.475Z,20.03
2022-08-29T06:28:48.435Z,20.10
2022-08-29T06:31:20.870Z,20.14
2022-08-29T06:33:54.288Z,20.20
2022-08-29T06:36:21.090Z,20.24
2022-08-29T06:38:48.099Z,20.30
2022-08-29T06:41:17.003Z,20.35
2022-08-29T06:43:43.957Z,20.42
2022-08-29T06:46:24.410Z,20.47
2022-08-29T06:48:51.572Z,20.57
2022-08-29T06:51:18.210Z,20.66
2022-08-29T06:53:45.022Z,20.70
2022-08-29T06:56:11.986Z,20.77
2022-08-29T06:58:38.897Z,20.86
2022-08-29T07:01:10.581Z,20.93
2022-08-29T07:03:38.241Z,21.03
2022-08-29T07:06:05.506Z,21.14
2022-08-29T07:08:33.745Z,21.23
2022-08-29T07:11:01.014Z,21.33
2022-08-29T07:13:27.532Z,21.44
2022-08-29T07:15:54.092Z,21.52
2022-08-29T07:18:21.264Z,21.62
2022-08-29T07:20:47.799Z,21.72
2022-08-29T07:23:14.507Z,21.83
2022-08-29T07:25:41.183Z,21.94
2022-08-29T07:28:13.365Z,22.04
2022-08-29T07:30:42.003Z,22.17
2022-08-29T07:33:08.644Z,22.30
2022-08-29T07:35:35.127Z,22.43
2022-08-29T07:38:01.819Z,22.54
2022-08-29T07:40:28.715Z,22.66
2022-08-29T07:42:55.350Z,22.79
2022-08-29T07:45:21.882Z,23.00
2022-08-29T07:47:48.365Z,23.26
2022-08-29T07:50:15.247Z,23.59
2022-08-29T07:52:41.714Z,24.00
2022-08-29T07:55:08.865Z,24.41
2022-08-29T07:57:39.659Z,24.83
2022-08-29T08:00:11.954Z,25.23
2022-08-29T08:02:38.660Z,25.62
2022-08-29T08:05:06.799Z,26.02
2022-08-29T08:07:35.045Z,26.43
2022-08-29T08:10:03.086Z,26.82
2022-08-29T08:12:29.945Z,27.20
2022-08-29T08:14:57.171Z,27.50
2022-08-29T08:17:24.104Z,27.71
2022-08-29T08:19:50.649Z,27.81
2022-08-29T08:22:17.308Z,27.78
2022-08-29T08:24:43.847Z,27.65
2022-08-29T08:27:10.338Z,27.47
2022-08-29T08:29:36.961Z,27.24
2022-08-29T08:32:03.868Z,27.03
2022-08-29T08:34:30.585Z,26.84
2022-08-29T08:36:57.115Z,26.70
2022-08-29T08:39:23.624Z,26.59
2022-08-29T08:41:53.128Z,26.48
2022-08-29T08:44:22.731Z,26.42
2022-08-29T08:46:54.781Z,26.35
2022-08-29T08:49:33.196Z,26.30
2022-08-29T08:52:02.256Z,26.31
2022-08-29T08:54:34.839Z,26.32
2022-08-29T08:57:07.998Z,26.34
2022-08-29T08:59:44.437Z,26.36
2022-08-29T09:02:34.834Z,26.42
2022-08-29T09:05:19.630Z,26.50
2022-08-29T09:08:03.083Z,26.57
2022-08-29T09:10:43.581Z,26.62
2022-08-29T09:13:32.421Z,26.68
2022-08-29T09:16:05.216Z,26.74
2022-08-29T09:18:39.274Z,26.80
2022-08-29T09:21:39.036Z,26.82
2022-08-29T09:23:59.946Z,26.86
2022-08-29T09:26:29.315Z,26.85
2022-08-29T09:28:55.938Z,26.89
2022-08-29T09:31:28.657Z,26.85
2022-08-29T09:33:58.901Z,26.85
2022-08-29T09:36:42.796Z,26.84
2022-08-29T09:39:29.145Z,26.91
2022-08-29T09:41:58.920Z,26.99
2022-08-29T09:44:31.612Z,27.02
2022-08-29T09:47:04.218Z,27.03
2022-08-29T09:49:30.808Z,27.02
2022-08-29T09:52:10.060Z,26.95
2022-08-29T09:54:36.628Z,26.96
2022-08-29T09:57:18.643Z,26.94
2022-08-29T10:00:16.065Z,26.92
2022-08-29T10:02:43.849Z,27.00
2022-08-29T10:05:36.235Z,27.02
2022-08-29T10:08:06.052Z,27.07
2022-08-29T10:10:36.494Z,27.10
2022-08-29T10:13:22.283Z,27.12
2022-08-29T10:15:57.568Z,27.20
2022-08-29T10:18:42.920Z,27.20
2022-08-29T10:21:26.696Z,27.28
2022-08-29T10:24:19.486Z,27.35
2022-08-29T10:27:17.023Z,27.44
2022-08-29T10:30:14.201Z,27.54
2022-08-29T10:33:19.629Z,27.60
2022-08-29T10:36:01.119Z,27.63
2022-08-29T10:39:06.140Z,27.57
2022-08-29T10:41:39.225Z,27.57
2022-08-29T10:44:08.646Z,27.57
2022-08-29T10:47:02.440Z,27.55
2022-08-29T10:49:28.896Z,27.60
2022-08-29T10:52:18.877Z,27.58
2022-08-29T10:54:51.947Z,27.57
2022-08-29T10:57:42.704Z,27.55
2022-08-29T11:00:15.627Z,27.54
2022-08-29T11:03:06.910Z,27.51
2022-08-29T11:05:44.199Z,27.46
2022-08-29T11:08:27.422Z,27.42
2022-08-29T11:10:54.240Z,27.44
2022-08-29T11:13:56.287Z,27.37
2022-08-29T11:16:27.509Z,27.39
2022-08-29T11:19:13.113Z,27.38
2022-08-29T11:22:02.880Z,27.39
2022-08-29T11:24:35.066Z,27.48
2022-08-29T11:27:13.129Z,27.45
2022-08-29T11:29:50.928Z,27.54
2022-08-29T11:32:23.241Z,27.56
2022-08-29T11:35:08.739Z,27.53
2022-08-29T11:37:53.702Z,27.51
2022-08-29T11:43:48.847Z,27.57
2022-08-29T11:46:17.008Z,27.57
2022-08-29T11:48:47.736Z,27.57
2022-08-29T11:51:29.494Z,27.55
2022-08-29T11:53:57.039Z,27.63
2022-08-29T11:56:28.899Z,27.68
2022-08-29T11:58:57.903Z,27.75
2022-08-29T12:01:24.349Z,27.79
2022-08-29T12:04:00.983Z,27.81
2022-08-29T12:06:42.848Z,27.81
2022-08-29T12:09:13.882Z,27.84
2022-08-29T12:11:58.938Z,27.80
2022-08-29T12:14:37.940Z,27.84
2022-08-29T12:17:51.380Z,27.89
2022-08-29T12:21:03.039Z,27.97
2022-08-29T12:23:36.842Z,28.09
2022-08-29T12:26:22.913Z,28.15
2022-08-29T12:29:01.805Z,28.19
2022-08-29T12:32:18.187Z,28.25
2022-08-29T12:34:59.355Z,28.34
2022-08-29T12:37:39.947Z,28.37
2022-08-29T12:40:06.968Z,28.41
2022-08-29T12:42:57.405Z,28.38
2022-08-29T12:45:28.126Z,28.45
2022-08-29T12:47:58.847Z,28.47
2022-08-29T12:50:34.434Z,28.46
2022-08-29T12:53:05.940Z,28.45
2022-08-29T12:55:40.487Z,28.42
2022-08-29T12:58:08.425Z,28.44
2022-08-29T13:00:35.896Z,28.47
2022-08-29T13:03:18.155Z,28.47
2022-08-29T13:05:45.826Z,28.51
2022-08-29T13:08:33.478Z,28.49
2022-08-29T13:11:05.378Z,28.55
2022-08-29T13:13:32.174Z,28.59
2022-08-29T13:16:01.444Z,28.62
2022-08-29T13:18:30.091Z,28.65
2022-08-29T13:21:18.499Z,28.72
2022-08-29T13:23:46.726Z,28.81
2022-08-29T13:26:16.192Z,28.85
2022-08-29T13:28:47.327Z,28.91
2022-08-29T13:31:14.164Z,28.98
2022-08-29T13:33:49.751Z,28.99
2022-08-29T13:36:37.425Z,29.01
2022-08-29T13:39:17.079Z,29.04
2022-08-29T13:41:47.078Z,29.08
2022-08-29T13:44:19.806Z,29.11
2022-08-29T13:46:47.632Z,29.21
2022-08-29T13:49:25.392Z,29.25
2022-08-29T13:51:52.312Z,29.31
2022-08-29T13:54:19.107Z,29.35
2022-08-29T13:56:56.172Z,29.35
2022-08-29T13:59:25.922Z,29.38
2022-08-29T14:02:10.489Z,29.39
2022-08-29T14:04:39.851Z,29.42
2022-08-29T14:07:13.729Z,29.43
2022-08-29T14:09:44.377Z,29.44
2022-08-29T14:12:12.537Z,29.47
2022-08-29T14:14:39.039Z,29.50
2022-08-29T14:17:05.659Z,29.53
2022-08-29T14:19:32.877Z,29.55
2022-08-29T14:22:00.546Z,29.60
2022-08-29T14:24:30.514Z,29.63
2022-08-29T14:27:01.521Z,29.67
2022-08-29T14:29:33.160Z,29.70
2022-08-29T14:32:02.763Z,29.69
2022-08-29T14:34:32.791Z,29.66
2022-08-29T14:37:01.301Z,29.63
2022-08-29T14:39:28.267Z,29.61
2022-08-29T14:41:55.035Z,29.61
2022-08-29T14:44:22.216Z,29.61
2022-08-29T14:46:49.883Z,29.62
2022-08-29T14:49:16.462Z,29.64
2022-08-29T14:51:44.476Z,29.65
2022-08-29T14:54:11.630Z,29.69
2022-08-29T14:56:55.008Z,29.72
2022-08-29T14:59:22.524Z,29.76
2022-08-29T15:01:54.309Z,29.79
2022-08-29T15:04:36.146Z,29.81
2022-08-29T15:07:11.815Z,29.81
2022-08-29T15:09:39.047Z,29.85
2022-08-29T15:12:06.004Z,29.86
2022-08-29T15:14:34.445Z,29.86
2022-08-29T15:17:01.186Z,29.85
2022-08-29T15:22:14.298Z,29.81
2022-08-29T15:24:40.844Z,29.78
2022-08-29T15:27:08.050Z,29.77
2022-08-29T15:29:37.212Z,29.76
2022-08-29T15:32:05.076Z,29.77
2022-08-29T15:34:32.045Z,29.77
2022-08-29T15:36:59.231Z,29.79
2022-08-29T15:39:29.926Z,29.77
2022-08-29T15:41:57.856Z,29.77
2022-08-29T15:44:25.269Z,29.75
2022-08-29T15:46:52.038Z,29.75
2022-08-29T15:49:21.183Z,29.74
2022-08-29T15:51:49.466Z,29.76
2022-08-29T15:54:16.357Z,29.76
2022-08-29T15:56:43.276Z,29.77
2022-08-29T15:59:12.470Z,29.76
2022-08-29T16:01:44.967Z,29.73
2022-08-29T16:04:12.917Z,29.72
2022-08-29T16:06:39.796Z,29.72
2022-08-29T16:09:15.174Z,29.70
2022-08-29T16:11:44.609Z,29.69
2022-08-29T16:16:58.651Z,29.69
2022-08-29T16:19:25.152Z,29.69
2022-08-29T16:21:51.758Z,29.68
2022-08-29T16:24:21.611Z,29.68
2022-08-29T16:26:48.169Z,29.67
2022-08-29T16:29:14.729Z,29.65
2022-08-29T16:31:46.194Z,29.64
2022-08-29T16:34:13.171Z,29.63
2022-08-29T16:36:39.707Z,29.60
2022-08-29T16:39:06.760Z,29.57
2022-08-29T16:41:33.289Z,29.55
2022-08-29T16:43:59.926Z,29.51
2022-08-29T16:46:30.817Z,29.47
2022-08-29T16:48:57.978Z,29.45
2022-08-29T16:51:27.636Z,29.40
2022-08-29T16:53:54.313Z,29.39
2022-08-29T16:56:21.062Z,29.36
2022-08-29T16:59:01.651Z,29.35
2022-08-29T17:01:43.384Z,29.31
2022-08-29T17:04:15.562Z,29.33
2022-08-29T17:06:43.339Z,29.34
2022-08-29T17:09:09.877Z,29.33
2022-08-29T17:11:37.814Z,29.31
2022-08-29T17:14:06.267Z,29.30
2022-08-29T17:16:32.814Z,29.30
2022-08-29T17:18:59.941Z,29.32
2022-08-29T17:21:27.194Z,29.27
2022-08-29T17:23:55.332Z,29.25
2022-08-29T17:26:23.009Z,29.22
2022-08-29T17:28:49.787Z,29.19
2022-08-29T17:31:17.226Z,29.17
2022-08-29T17:33:44.243Z,29.16
2022-08-29T17:36:11.424Z,29.12
2022-08-29T17:38:45.085Z,29.09
2022-08-29T17:41:18.244Z,29.07
2022-08-29T17:43:47.366Z,29.05
2022-08-29T17:46:15.449Z,29.02
2022-08-29T17:48:42.505Z,28.99
2022-08-29T17:51:09.545Z,28.96
2022-08-29T17:53:36.532Z,28.92
2022-08-29T17:56:24.733Z,28.87
2022-08-29T17:58:51.149Z,28.88
2022-08-29T18:01:17.736Z,28.87
2022-08-29T18:03:45.425Z,28.81
2022-08-29T18:06:14.821Z,28.75
2022-08-29T18:08:47.754Z,28.70
2022-08-29T18:11:16.323Z,28.64
2022-08-29T18:13:43.362Z,28.58
2022-08-29T18:16:10.742Z,28.52
2022-08-29T18:18:38.832Z,28.49
2022-08-29T18:21:05.601Z,28.47
2022-08-29T18:23:32.556Z,28.37
2022-08-29T18:25:59.352Z,28.29
2022-08-29T18:28:26.085Z,28.20
2022-08-29T18:30:52.865Z,28.11
2022-08-29T18:33:19.570Z,28.01
2022-08-29T18:35:46.508Z,27.91
2022-08-29T18:38:13.392Z,27.83
2022-08-29T18:40:40.352Z,27.74
2022-08-29T18:43:09.876Z,27.67
2022-08-29T18:45:37.866Z,27.59
2022-08-29T18:48:05.297Z,27.50
2022-08-29T18:50:34.649Z,27.45
2022-08-29T18:53:04.147Z,27.36
2022-08-29T18:55:30.749Z,27.29
2022-08-29T18:57:57.330Z,27.22
2022-08-29T19:00:25.140Z,27.14
2022-08-29T19:02:53.413Z,27.06
2022-08-29T19:05:20.976Z,26.99
2022-08-29T19:07:47.524Z,26.92
2022-08-29T19:10:14.068Z,26.84
2022-08-29T19:12:40.637Z,26.75
2022-08-29T19:15:08.521Z,26.68
2022-08-29T19:17:35.213Z,26.60
2022-08-29T19:20:20.544Z,26.53
2022-08-29T19:22:47.126Z,26.47
2022-08-29T19:25:13.662Z,26.40
2022-08-29T19:27:43.540Z,26.33
2022-08-29T19:30:13.373Z,26.27
2022-08-29T19:32:40.288Z,26.22
2022-08-29T19:35:07.780Z,26.17
2022-08-29T19:37:34.350Z,26.11
2022-08-29T19:40:01.714Z,26.07
2022-08-29T19:42:28.309Z,26.01
2022-08-29T19:44:55.255Z,25.96
2022-08-29T19:47:23.430Z,25.92
2022-08-29T19:49:50.818Z,25.86
2022-08-29T19:52:17.536Z,25.83
2022-08-29T19:54:44.270Z,25.79
2022-08-29T19:57:13.324Z,25.77
2022-08-29T19:59:41.582Z,25.74
2022-08-29T20:02:09.365Z,25.72
2022-08-29T20:04:36.402Z,25.70
2022-08-29T20:07:03.509Z,25.68
2022-08-29T20:09:30.276Z,25.70
2022-08-29T20:11:57.195Z,25.70
2022-08-29T20:14:23.858Z,25.74
2022-08-29T20:16:52.290Z,25.78
2022-08-29T20:19:21.237Z,25.79
2022-08-29T20:21:49.138Z,25.81
2022-08-29T20:24:16.605Z,25.84
2022-08-29T20:26:45.163Z,25.87
2022-08-29T20:29:12.209Z,25.93
2022-08-29T20:31:39.571Z,25.98
2022-08-29T20:34:06.484Z,25.99
2022-08-29T20:36:51.855Z,25.98
2022-08-29T20:39:21.088Z,25.99
2022-08-29T20:41:57.656Z,25.96
2022-08-29T20:44:32.986Z,26.00
2022-08-29T20:47:00.543Z,26.00
2022-08-29T20:49:27.511Z,25.99
2022-08-29T20:51:54.086Z,25.99
2022-08-29T20:54:25.907Z,25.96
2022-08-29T20:56:53.292Z,25.96
2022-08-29T20:59:22.601Z,25.95
2022-08-29T21:01:52.039Z,25.93
2022-08-29T21:04:37.273Z,25.92
2022-08-29T21:07:09.365Z,25.87
2022-08-29T21:09:41.208Z,25.87
2022-08-29T21:12:08.285Z,25.86
2022-08-29T21:14:34.862Z,25.83
2022-08-29T21:17:02.732Z,25.80
2022-08-29T21:19:29.987Z,25.77
2022-08-29T21:22:02.007Z,25.74
2022-08-29T21:24:29.456Z,25.73
2022-08-29T21:26:56.766Z,25.70
2022-08-29T21:29:23.596Z,25.68
2022-08-29T21:31:52.206Z,25.63
2022-08-29T21:34:18.909Z,25.62
2022-08-29T21:36:45.413Z,25.59
2022-08-29T21:39:13.277Z,25.53
2022-08-29T21:41:51.569Z,25.49
2022-08-29T21:44:20.103Z,25.44
2022-08-29T21:46:46.655Z,25.42
2022-08-29T21:49:17.379Z,25.41
2022-08-29T21:51:45.406Z,25.35
2022-08-29T21:54:13.892Z,25.31
2022-08-29T21:56:40.914Z,25.29
2022-08-29T21:59:07.774Z,25.29
2022-08-29T22:01:40.304Z,25.22
2022-08-29T22:04:09.767Z,25.19
2022-08-29T22:06:39.809Z,25.15
2022-08-29T22:09:13.834Z,25.11
2022-08-29T22:11:43.440Z,25.10
2022-08-29T22:14:11.665Z,25.06
2022-08-29T22:16:39.119Z,25.04
2022-08-29T22:19:14.961Z,24.99
2022-08-29T22:21:46.308Z,24.98
2022-08-29T22:24:15.063Z,24.95
2022-08-29T22:26:43.535Z,24.92
2022-08-29T22:29:11.942Z,24.87
2022-08-29T22:31:39.097Z,24.85
2022-08-29T22:34:09.655Z,24.82
2022-08-29T22:36:36.136Z,24.78
2022-08-29T22:39:02.817Z,24.75
2022-08-29T22:41:29.315Z,24.71
2022-08-29T22:44:25.453Z,24.68
2022-08-29T22:46:44.455Z,24.62
2022-08-29T22:49:11.101Z,24.60
2022-08-29T22:51:37.612Z,24.57
2022-08-29T22:54:22.690Z,24.53
2022-08-29T22:56:49.212Z,24.50
2022-08-29T22:59:16.888Z,24.46
2022-08-29T23:01:44.666Z,24.42
2022-08-29T23:04:12.539Z,24.40
2022-08-29T23:06:39.273Z,24.39
2022-08-29T23:09:06.467Z,24.38
2022-08-29T23:11:33.594Z,24.36
2022-08-29T23:14:00.659Z,24.35
2022-08-29T23:16:29.121Z,24.34
2022-08-29T23:18:55.695Z,24.32
2022-08-29T23:21:25.106Z,24.31
2022-08-29T23:23:51.850Z,24.33
2022-08-29T23:26:20.068Z,24.31
2022-08-29T23:28:47.449Z,24.32
2022-08-29T23:31:15.653Z,24.31
2022-08-29T23:33:42.539Z,24.30
2022-08-29T23:36:09.592Z,24.29
2022-08-29T23:38:37.075Z,24.27
2022-08-29T23:41:04.275Z,24.24
2022-08-29T23:43:31.716Z,24.23
2022-08-29T23:46:04.675Z,24.22
2022-08-29T23:48:31.698Z,24.23
2022-08-29T23:50:58.293Z,24.21
2022-08-29T23:53:25.191Z,24.20
2022-08-29T23:55:52.099Z,24.18
2022-08-29T23:58:18.705Z,24.17
